sensor_id;sensor_type;location;lat;lon;timestamp;pressure;altitude;pressure_sealevel;temperature;humidity
41596;BME280;27283;52.504;13.358;2023-05-08T00:00:47;102284.03;;;8.58;73.66
41596;BME280;27283;52.504;13.358;2023-05-08T00:03:32;102281.84;;;8.63;73.44
41596;BME280;27283;52.504;13.358;2023-05-08T00:06:05;102268.41;;;8.51;73.39
41596;BME280;27283;52.504;13.358;2023-05-08T00:08:38;102273.13;;;8.48;73.52
41596;BME280;27283;52.504;13.358;2023-05-08T00:11:11;102266.56;;;8.52;73.50
41596;BME280;27283;52.504;13.358;2023-05-08T00:13:46;102271.63;;;8.44;73.88
41596;BME280;27283;52.504;13.358;2023-05-08T00:16:19;102276.22;;;8.42;74.46
41596;BME280;27283;52.504;13.358;2023-05-08T00:18:55;102279.03;;;8.40;74.18
41596;BME280;27283;52.504;13.358;2023-05-08T00:21:27;102274.22;;;8.32;74.88
41596;BME280;27283;52.504;13.358;2023-05-08T00:24:06;102279.38;;;8.36;74.53
41596;BME280;27283;52.504;13.358;2023-05-08T00:26:38;102288.72;;;8.30;75.17
41596;BME280;27283;52.504;13.358;2023-05-08T00:29:12;102282.63;;;8.28;75.37
41596;BME280;27283;52.504;13.358;2023-05-08T00:31:45;102289.28;;;8.22;75.69
41596;BME280;27283;52.504;13.358;2023-05-08T00:34:20;102276.34;;;8.16;75.90
41596;BME280;27283;52.504;13.358;2023-05-08T00:36:52;102292.53;;;8.14;76.00
41596;BME280;27283;52.504;13.358;2023-05-08T00:39:25;102282.38;;;8.07;76.42
41596;BME280;27283;52.504;13.358;2023-05-08T00:41:57;102287.94;;;8.04;76.67
41596;BME280;27283;52.504;13.358;2023-05-08T00:44:31;102296.66;;;7.94;77.26
41596;BME280;27283;52.504;13.358;2023-05-08T00:47:06;102294.09;;;7.93;77.42
41596;BME280;27283;52.504;13.358;2023-05-08T00:49:42;102301.13;;;7.94;77.67
41596;BME280;27283;52.504;13.358;2023-05-08T00:52:15;102294.53;;;7.87;77.98
41596;BME280;27283;52.504;13.358;2023-05-08T00:54:48;102307.59;;;7.78;78.15
41596;BME280;27283;52.504;13.358;2023-05-08T00:57:20;102312.00;;;7.79;78.30
41596;BME280;27283;52.504;13.358;2023-05-08T00:59:56;102297.53;;;7.82;78.30
41596;BME280;27283;52.504;13.358;2023-05-08T01:02:31;102299.28;;;7.70;78.84
41596;BME280;27283;52.504;13.358;2023-05-08T01:05:06;102303.97;;;7.67;78.74
41596;BME280;27283;52.504;13.358;2023-05-08T01:07:40;102305.13;;;7.75;78.35
41596;BME280;27283;52.504;13.358;2023-05-08T01:10:32;102307.41;;;7.69;78.49
41596;BME280;27283;52.504;13.358;2023-05-08T01:13:17;102300.56;;;7.65;78.58
41596;BME280;27283;52.504;13.358;2023-05-08T01:15:59;102302.59;;;7.61;78.78
41596;BME280;27283;52.504;13.358;2023-05-08T01:21:36;102309.25;;;7.55;78.83
41596;BME280;27283;52.504;13.358;2023-05-08T01:24:38;102306.56;;;7.55;79.12
41596;BME280;27283;52.504;13.358;2023-05-08T01:30:46;102303.53;;;7.47;78.86
41596;BME280;27283;52.504;13.358;2023-05-08T01:33:28;102316.38;;;7.55;78.32
41596;BME280;27283;52.504;13.358;2023-05-08T01:36:13;102310.00;;;7.44;78.92
41596;BME280;27283;52.504;13.358;2023-05-08T01:38:54;102307.72;;;7.51;78.35
41596;BME280;27283;52.504;13.358;2023-05-08T01:41:27;102308.78;;;7.49;78.67
41596;BME280;27283;52.504;13.358;2023-05-08T01:44:11;102312.47;;;7.48;78.68
41596;BME280;27283;52.504;13.358;2023-05-08T01:46:47;102312.97;;;7.53;78.54
41596;BME280;27283;52.504;13.358;2023-05-08T01:49:33;102322.19;;;7.49;78.75
41596;BME280;27283;52.504;13.358;2023-05-08T01:52:13;102318.53;;;7.50;78.67
41596;BME280;27283;52.504;13.358;2023-05-08T01:54:56;102319.81;;;7.44;78.69
41596;BME280;27283;52.504;13.358;2023-05-08T01:57:32;102319.41;;;7.37;79.02
41596;BME280;27283;52.504;13.358;2023-05-08T02:00:07;102314.16;;;7.36;79.16
41596;BME280;27283;52.504;13.358;2023-05-08T02:02:41;102314.47;;;7.31;79.03
41596;BME280;27283;52.504;13.358;2023-05-08T02:05:17;102312.03;;;7.28;79.33
41596;BME280;27283;52.504;13.358;2023-05-08T02:07:51;102325.50;;;7.26;79.43
41596;BME280;27283;52.504;13.358;2023-05-08T02:10:26;102325.50;;;7.26;79.29
41596;BME280;27283;52.504;13.358;2023-05-08T02:13:00;102313.41;;;7.21;79.65
41596;BME280;27283;52.504;13.358;2023-05-08T02:15:34;102315.22;;;7.20;79.37
41596;BME280;27283;52.504;13.358;2023-05-08T02:18:07;102316.81;;;7.23;79.08
41596;BME280;27283;52.504;13.358;2023-05-08T02:20:43;102308.78;;;7.23;78.94
41596;BME280;27283;52.504;13.358;2023-05-08T02:23:17;102309.88;;;7.20;79.07
41596;BME280;27283;52.504;13.358;2023-05-08T02:26:05;102310.91;;;7.05;79.11
41596;BME280;27283;52.504;13.358;2023-05-08T02:28:39;102319.50;;;7.10;79.19
41596;BME280;27283;52.504;13.358;2023-05-08T02:31:13;102306.84;;;7.12;78.92
41596;BME280;27283;52.504;13.358;2023-05-08T02:33:47;102313.03;;;7.00;79.06
41596;BME280;27283;52.504;13.358;2023-05-08T02:36:23;102305.13;;;6.98;79.29
41596;BME280;27283;52.504;13.358;2023-05-08T02:38:57;102311.22;;;7.00;79.30
41596;BME280;27283;52.504;13.358;2023-05-08T02:41:32;102309.94;;;7.06;79.11
41596;BME280;27283;52.504;13.358;2023-05-08T02:44:05;102302.44;;;6.98;79.20
41596;BME280;27283;52.504;13.358;2023-05-08T02:46:55;102299.03;;;6.96;79.04
41596;BME280;27283;52.504;13.358;2023-05-08T02:49:32;102307.38;;;6.91;79.21
41596;BME280;27283;52.504;13.358;2023-05-08T02:52:15;102307.66;;;6.87;79.40
41596;BME280;27283;52.504;13.358;2023-05-08T02:54:54;102304.91;;;6.88;79.16
41596;BME280;27283;52.504;13.358;2023-05-08T02:57:38;102306.38;;;6.92;79.09
41596;BME280;27283;52.504;13.358;2023-05-08T03:00:13;102307.97;;;6.82;79.44
41596;BME280;27283;52.504;13.358;2023-05-08T03:02:59;102308.75;;;6.84;79.67
41596;BME280;27283;52.504;13.358;2023-05-08T03:05:34;102307.66;;;6.87;79.18
41596;BME280;27283;52.504;13.358;2023-05-08T03:08:19;102312.47;;;6.82;79.65
41596;BME280;27283;52.504;13.358;2023-05-08T03:10:54;102309.69;;;6.83;79.55
41596;BME280;27283;52.504;13.358;2023-05-08T03:13:34;102316.88;;;6.83;79.45
41596;BME280;27283;52.504;13.358;2023-05-08T03:16:13;102313.63;;;6.78;79.56
41596;BME280;27283;52.504;13.358;2023-05-08T03:18:51;102315.56;;;6.76;79.38
41596;BME280;27283;52.504;13.358;2023-05-08T03:21:27;102315.75;;;6.72;79.56
41596;BME280;27283;52.504;13.358;2023-05-08T03:24:04;102314.13;;;6.70;79.55
41596;BME280;27283;52.504;13.358;2023-05-08T03:26:38;102308.25;;;6.65;79.37
41596;BME280;27283;52.504;13.358;2023-05-08T03:29:12;102320.38;;;6.70;79.75
41596;BME280;27283;52.504;13.358;2023-05-08T03:31:46;102318.63;;;6.69;79.93
41596;BME280;27283;52.504;13.358;2023-05-08T03:34:20;102316.91;;;6.68;79.75
41596;BME280;27283;52.504;13.358;2023-05-08T03:36:53;102314.97;;;6.57;80.15
41596;BME280;27283;52.504;13.358;2023-05-08T03:39:29;102316.78;;;6.57;80.39
41596;BME280;27283;52.504;13.358;2023-05-08T03:42:01;102315.81;;;6.58;80.56
41596;BME280;27283;52.504;13.358;2023-05-08T03:44:34;102317.53;;;6.59;80.20
41596;BME280;27283;52.504;13.358;2023-05-08T03:47:06;102323.06;;;6.56;80.69
41596;BME280;27283;52.504;13.358;2023-05-08T03:49:39;102324.03;;;6.55;80.71
41596;BME280;27283;52.504;13.358;2023-05-08T03:52:14;102320.53;;;6.40;81.35
41596;BME280;27283;52.504;13.358;2023-05-08T03:54:50;102324.53;;;6.47;81.44
41596;BME280;27283;52.504;13.358;2023-05-08T03:57:24;102330.66;;;6.49;81.03
41596;BME280;27283;52.504;13.358;2023-05-08T04:00:02;102329.03;;;6.47;81.08
41596;BME280;27283;52.504;13.358;2023-05-08T04:02:45;102329.38;;;6.55;81.14
41596;BME280;27283;52.504;13.358;2023-05-08T04:05:25;102330.66;;;6.49;81.67
41596;BME280;27283;52.504;13.358;2023-05-08T04:08:04;102332.44;;;6.49;81.84
41596;BME280;27283;52.504;13.358;2023-05-08T04:10:47;102334.19;;;6.50;81.63
41596;BME280;27283;52.504;13.358;2023-05-08T04:13:24;102328.31;;;6.57;81.66
41596;BME280;27283;52.504;13.358;2023-05-08T04:16:05;102334.72;;;6.55;81.51
41596;BME280;27283;52.504;13.358;2023-05-08T04:18:43;102336.53;;;6.54;81.54
41596;BME280;27283;52.504;13.358;2023-05-08T04:21:21;102335.03;;;6.50;81.89
41596;BME280;27283;52.504;13.358;2023-05-08T04:23:55;102337.50;;;6.53;81.89
41596;BME280;27283;52.504;13.358;2023-05-08T04:26:31;102329.63;;;6.65;81.44
41596;BME280;27283;52.504;13.358;2023-05-08T04:29:05;102332.84;;;6.70;81.09
41596;BME280;27283;52.504;13.358;2023-05-08T04:31:39;102345.88;;;6.62;81.23
41596;BME280;27283;52.504;13.358;2023-05-08T04:34:13;102336.19;;;6.73;80.45
41596;BME280;27283;52.504;13.358;2023-05-08T04:36:47;102340.56;;;6.74;80.12
41596;BME280;27283;52.504;13.358;2023-05-08T04:39:31;102341.75;;;6.70;80.37
41596;BME280;27283;52.504;13.358;2023-05-08T04:42:06;102344.72;;;6.93;78.84
41596;BME280;27283;52.504;13.358;2023-05-08T04:44:38;102347.28;;;7.07;78.52
41596;BME280;27283;52.504;13.358;2023-05-08T04:47:11;102356.38;;;7.05;77.97
41596;BME280;27283;52.504;13.358;2023-05-08T04:49:43;102355.88;;;7.13;77.79
41596;BME280;27283;52.504;13.358;2023-05-08T04:52:16;102369.91;;;7.29;77.37
41596;BME280;27283;52.504;13.358;2023-05-08T04:54:48;102364.75;;;7.26;77.06
41596;BME280;27283;52.504;13.358;2023-05-08T04:57:23;102377.19;;;7.27;77.01
41596;BME280;27283;52.504;13.358;2023-05-08T04:59:55;102372.28;;;7.47;76.02
41596;BME280;27283;52.504;13.358;2023-05-08T05:02:28;102372.94;;;7.50;75.88
41596;BME280;27283;52.504;13.358;2023-05-08T05:05:01;102376.78;;;7.59;75.33
41596;BME280;27283;52.504;13.358;2023-05-08T05:07:33;102375.50;;;7.65;75.22
41596;BME280;27283;52.504;13.358;2023-05-08T05:10:06;102370.25;;;7.76;74.40
41596;BME280;27283;52.504;13.358;2023-05-08T05:12:41;102376.25;;;7.79;74.12
41596;BME280;27283;52.504;13.358;2023-05-08T05:15:16;102390.50;;;7.93;73.75
41596;BME280;27283;52.504;13.358;2023-05-08T05:17:49;102381.50;;;7.94;73.06
41596;BME280;27283;52.504;13.358;2023-05-08T05:20:23;102379.03;;;8.04;73.11
41596;BME280;27283;52.504;13.358;2023-05-08T05:22:56;102386.84;;;8.07;72.47
41596;BME280;27283;52.504;13.358;2023-05-08T05:25:28;102382.22;;;8.22;71.85
41596;BME280;27283;52.504;13.358;2023-05-08T05:28:03;102380.03;;;8.40;70.85
41596;BME280;27283;52.504;13.358;2023-05-08T05:30:36;102388.28;;;8.49;70.45
41596;BME280;27283;52.504;13.358;2023-05-08T05:33:08;102394.91;;;8.57;69.66
41596;BME280;27283;52.504;13.358;2023-05-08T05:35:43;102388.38;;;8.85;68.50
41596;BME280;27283;52.504;13.358;2023-05-08T05:38:16;102395.44;;;9.46;65.95
41596;BME280;27283;52.504;13.358;2023-05-08T05:40:48;102393.66;;;10.48;62.05
41596;BME280;27283;52.504;13.358;2023-05-08T05:43:23;102391.88;;;11.34;58.95
41596;BME280;27283;52.504;13.358;2023-05-08T05:46:02;102392.78;;;12.18;54.87
41596;BME280;27283;52.504;13.358;2023-05-08T05:48:34;102395.91;;;12.64;53.52
41596;BME280;27283;52.504;13.358;2023-05-08T05:51:06;102404.19;;;13.30;51.39
41596;BME280;27283;52.504;13.358;2023-05-08T05:53:39;102400.38;;;13.53;50.58
41596;BME280;27283;52.504;13.358;2023-05-08T05:56:11;102401.84;;;13.75;48.67
41596;BME280;27283;52.504;13.358;2023-05-08T05:58:46;102400.22;;;14.02;48.31
41596;BME280;27283;52.504;13.358;2023-05-08T06:01:24;102400.88;;;14.41;47.25
41596;BME280;27283;52.504;13.358;2023-05-08T06:03:57;102402.53;;;14.52;45.79
41596;BME280;27283;52.504;13.358;2023-05-08T06:06:29;102401.88;;;14.12;45.36
41596;BME280;27283;52.504;13.358;2023-05-08T06:09:01;102399.25;;;13.93;46.36
41596;BME280;27283;52.504;13.358;2023-05-08T06:11:34;102394.34;;;13.69;46.96
41596;BME280;27283;52.504;13.358;2023-05-08T06:14:10;102403.56;;;13.76;46.82
41596;BME280;27283;52.504;13.358;2023-05-08T06:16:42;102402.09;;;14.01;46.48
41596;BME280;27283;52.504;13.358;2023-05-08T06:19:15;102400.06;;;14.31;45.04
41596;BME280;27283;52.504;13.358;2023-05-08T06:21:50;102404.31;;;14.43;44.62
41596;BME280;27283;52.504;13.358;2023-05-08T06:24:22;102402.13;;;14.47;45.21
41596;BME280;27283;52.504;13.358;2023-05-08T06:27:10;102411.44;;;14.72;44.34
41596;BME280;27283;52.504;13.358;2023-05-08T06:29:45;102400.38;;;15.19;43.98
41596;BME280;27283;52.504;13.358;2023-05-08T06:32:19;102404.94;;;15.37;41.91
41596;BME280;27283;52.504;13.358;2023-05-08T06:34:52;102405.91;;;15.36;42.53
41596;BME280;27283;52.504;13.358;2023-05-08T06:37:24;102397.91;;;15.52;40.82
41596;BME280;27283;52.504;13.358;2023-05-08T06:40:25;102408.38;;;15.29;41.08
41596;BME280;27283;52.504;13.358;2023-05-08T06:42:57;102406.91;;;15.35;41.49
41596;BME280;27283;52.504;13.358;2023-05-08T06:45:32;102411.28;;;15.98;40.77
41596;BME280;27283;52.504;13.358;2023-05-08T06:48:05;102411.97;;;16.35;39.28
41596;BME280;27283;52.504;13.358;2023-05-08T06:50:37;102405.69;;;16.00;39.52
41596;BME280;27283;52.504;13.358;2023-05-08T06:53:11;102407.81;;;15.62;39.98
41596;BME280;27283;52.504;13.358;2023-05-08T06:55:43;102412.63;;;15.50;40.50
41596;BME280;27283;52.504;13.358;2023-05-08T06:58:23;102403.81;;;15.74;39.96
41596;BME280;27283;52.504;13.358;2023-05-08T07:00:59;102410.75;;;15.50;39.77
41596;BME280;27283;52.504;13.358;2023-05-08T07:03:31;102394.69;;;16.01;39.27
41596;BME280;27283;52.504;13.358;2023-05-08T07:06:06;102410.78;;;16.37;39.06
41596;BME280;27283;52.504;13.358;2023-05-08T07:08:40;102403.25;;;16.65;38.65
41596;BME280;27283;52.504;13.358;2023-05-08T07:11:13;102416.41;;;17.52;36.83
41596;BME280;27283;52.504;13.358;2023-05-08T07:13:46;102415.06;;;17.40;36.31
41596;BME280;27283;52.504;13.358;2023-05-08T07:16:22;102405.59;;;16.60;37.06
41596;BME280;27283;52.504;13.358;2023-05-08T07:18:55;102397.91;;;17.07;37.18
41596;BME280;27283;52.504;13.358;2023-05-08T07:21:30;102399.06;;;17.62;35.34
41596;BME280;27283;52.504;13.358;2023-05-08T07:24:04;102407.19;;;18.03;35.52
41596;BME280;27283;52.504;13.358;2023-05-08T07:26:38;102404.50;;;17.70;34.02
41596;BME280;27283;52.504;13.358;2023-05-08T07:29:11;102396.94;;;18.13;34.30
41596;BME280;27283;52.504;13.358;2023-05-08T07:31:47;102412.19;;;17.50;34.04
41596;BME280;27283;52.504;13.358;2023-05-08T07:34:20;102416.09;;;17.06;34.18
41596;BME280;27283;52.504;13.358;2023-05-08T07:37:06;102407.56;;;16.34;34.75
41596;BME280;27283;52.504;13.358;2023-05-08T07:39:40;102399.66;;;16.57;35.13
41596;BME280;27283;52.504;13.358;2023-05-08T07:42:13;102397.31;;;16.70;34.89
41596;BME280;27283;52.504;13.358;2023-05-08T07:44:46;102406.91;;;17.07;33.19
41596;BME280;27283;52.504;13.358;2023-05-08T07:47:26;102411.03;;;16.60;33.78
41596;BME280;27283;52.504;13.358;2023-05-08T07:49:58;102402.09;;;16.84;33.95
41596;BME280;27283;52.504;13.358;2023-05-08T07:52:34;102407.41;;;16.43;34.09
41596;BME280;27283;52.504;13.358;2023-05-08T07:55:07;102403.66;;;16.36;34.38
41596;BME280;27283;52.504;13.358;2023-05-08T07:57:42;102392.66;;;16.46;34.04
41596;BME280;27283;52.504;13.358;2023-05-08T08:00:15;102393.13;;;16.92;33.79
41596;BME280;27283;52.504;13.358;2023-05-08T08:02:51;102388.03;;;17.55;32.80
41596;BME280;27283;52.504;13.358;2023-05-08T08:05:24;102389.50;;;17.99;32.57
41596;BME280;27283;52.504;13.358;2023-05-08T08:07:57;102394.59;;;18.41;34.15
41596;BME280;27283;52.504;13.358;2023-05-08T08:10:31;102394.53;;;18.81;31.35
41596;BME280;27283;52.504;13.358;2023-05-08T08:13:04;102382.00;;;19.18;30.81
41596;BME280;27283;52.504;13.358;2023-05-08T08:15:36;102393.81;;;19.34;30.26
41596;BME280;27283;52.504;13.358;2023-05-08T08:18:13;102382.06;;;19.33;30.92
41596;BME280;27283;52.504;13.358;2023-05-08T08:20:46;102375.91;;;19.69;29.58
41596;BME280;27283;52.504;13.358;2023-05-08T08:23:18;102386.81;;;19.16;29.98
41596;BME280;27283;52.504;13.358;2023-05-08T08:25:51;102394.91;;;18.47;30.33
41596;BME280;27283;52.504;13.358;2023-05-08T08:28:32;102383.16;;;18.46;29.96
41596;BME280;27283;52.504;13.358;2023-05-08T08:31:11;102393.50;;;18.19;30.15
41596;BME280;27283;52.504;13.358;2023-05-08T08:33:47;102384.31;;;18.52;30.30
41596;BME280;27283;52.504;13.358;2023-05-08T08:36:20;102382.56;;;18.28;30.51
41596;BME280;27283;52.504;13.358;2023-05-08T08:38:53;102389.28;;;18.80;29.19
41596;BME280;27283;52.504;13.358;2023-05-08T08:41:26;102383.16;;;19.01;29.07
41596;BME280;27283;52.504;13.358;2023-05-08T08:43:59;102389.38;;;18.32;29.29
41596;BME280;27283;52.504;13.358;2023-05-08T08:46:32;102386.06;;;18.99;29.52
41596;BME280;27283;52.504;13.358;2023-05-08T08:49:09;102390.16;;;19.79;28.17
41596;BME280;27283;52.504;13.358;2023-05-08T08:51:49;102385.16;;;19.83;27.88
41596;BME280;27283;52.504;13.358;2023-05-08T08:54:23;102373.13;;;19.92;29.72
41596;BME280;27283;52.504;13.358;2023-05-08T08:57:00;102393.03;;;20.38;27.72
41596;BME280;27283;52.504;13.358;2023-05-08T08:59:37;102372.56;;;19.44;26.35
41596;BME280;27283;52.504;13.358;2023-05-08T09:02:11;102379.69;;;19.30;27.13
41596;BME280;27283;52.504;13.358;2023-05-08T09:04:49;102384.22;;;19.00;27.40
41596;BME280;27283;52.504;13.358;2023-05-08T09:07:22;102380.38;;;19.09;27.19
41596;BME280;27283;52.504;13.358;2023-05-08T09:09:56;102377.81;;;19.30;27.08
41596;BME280;27283;52.504;13.358;2023-05-08T09:12:28;102368.06;;;19.36;27.32
41596;BME280;27283;52.504;13.358;2023-05-08T09:15:01;102366.03;;;20.28;27.04
41596;BME280;27283;52.504;13.358;2023-05-08T09:17:33;102358.06;;;19.96;26.58
41596;BME280;27283;52.504;13.358;2023-05-08T09:20:11;102379.03;;;20.11;26.04
41596;BME280;27283;52.504;13.358;2023-05-08T09:22:45;102372.16;;;19.55;26.26
41596;BME280;27283;52.504;13.358;2023-05-08T09:25:19;102360.88;;;19.35;27.59
41596;BME280;27283;52.504;13.358;2023-05-08T09:27:51;102369.13;;;19.12;27.83
41596;BME280;27283;52.504;13.358;2023-05-08T09:30:24;102368.84;;;19.22;27.60
41596;BME280;27283;52.504;13.358;2023-05-08T09:33:01;102367.53;;;19.71;27.55
41596;BME280;27283;52.504;13.358;2023-05-08T09:35:40;102362.00;;;20.09;27.40
41596;BME280;27283;52.504;13.358;2023-05-08T09:38:33;102377.34;;;19.80;27.09
41596;BME280;27283;52.504;13.358;2023-05-08T09:41:11;102355.00;;;19.46;27.58
41596;BME280;27283;52.504;13.358;2023-05-08T09:43:58;102362.69;;;19.43;27.43
41596;BME280;27283;52.504;13.358;2023-05-08T09:46:32;102367.53;;;20.15;27.09
41596;BME280;27283;52.504;13.358;2023-05-08T09:49:05;102360.41;;;19.85;28.03
41596;BME280;27283;52.504;13.358;2023-05-08T09:51:54;102368.59;;;19.85;28.46
41596;BME280;27283;52.504;13.358;2023-05-08T09:54:26;102351.81;;;20.17;28.02
41596;BME280;27283;52.504;13.358;2023-05-08T09:57:00;102367.22;;;20.77;27.21
41596;BME280;27283;52.504;13.358;2023-05-08T09:59:44;102349.25;;;20.89;26.90
41596;BME280;27283;52.504;13.358;2023-05-08T10:02:17;102357.06;;;20.70;27.29
41596;BME280;27283;52.504;13.358;2023-05-08T10:04:50;102351.63;;;20.56;26.74
41596;BME280;27283;52.504;13.358;2023-05-08T10:07:30;102356.50;;;20.75;26.82
41596;BME280;27283;52.504;13.358;2023-05-08T10:10:05;102348.66;;;19.84;27.74
41596;BME280;27283;52.504;13.358;2023-05-08T10:12:39;102354.50;;;19.96;28.06
41596;BME280;27283;52.504;13.358;2023-05-08T10:15:12;102353.06;;;19.70;26.88
41596;BME280;27283;52.504;13.358;2023-05-08T10:17:51;102343.56;;;19.96;27.22
41596;BME280;27283;52.504;13.358;2023-05-08T10:20:29;102343.22;;;20.35;27.43
41596;BME280;27283;52.504;13.358;2023-05-08T10:23:06;102338.09;;;20.84;28.84
41596;BME280;27283;52.504;13.358;2023-05-08T10:25:42;102343.94;;;21.31;26.39
41596;BME280;27283;52.504;13.358;2023-05-08T10:28:21;102338.56;;;21.44;25.17
41596;BME280;27283;52.504;13.358;2023-05-08T10:30:59;102343.38;;;21.64;25.75
41596;BME280;27283;52.504;13.358;2023-05-08T10:33:34;102342.56;;;21.70;26.63
41596;BME280;27283;52.504;13.358;2023-05-08T10:36:07;102337.91;;;21.42;25.21
41596;BME280;27283;52.504;13.358;2023-05-08T10:38:45;102335.50;;;21.54;24.76
41596;BME280;27283;52.504;13.358;2023-05-08T10:41:19;102322.28;;;21.36;24.99
41596;BME280;27283;52.504;13.358;2023-05-08T10:43:53;102324.75;;;21.52;24.41
41596;BME280;27283;52.504;13.358;2023-05-08T10:46:48;102320.16;;;21.03;25.86
41596;BME280;27283;52.504;13.358;2023-05-08T10:49:33;102313.47;;;21.40;26.49
41596;BME280;27283;52.504;13.358;2023-05-08T10:52:15;102311.13;;;21.59;25.22
41596;BME280;27283;52.504;13.358;2023-05-08T10:58:02;102310.91;;;20.61;25.84
41596;BME280;27283;52.504;13.358;2023-05-08T11:03:53;102307.50;;;20.00;26.47
41596;BME280;27283;52.504;13.358;2023-05-08T11:06:42;102301.97;;;20.30;26.27
41596;BME280;27283;52.504;13.358;2023-05-08T11:09:19;102305.25;;;20.62;25.25
41596;BME280;27283;52.504;13.358;2023-05-08T11:12:07;102294.66;;;20.74;25.81
41596;BME280;27283;52.504;13.358;2023-05-08T11:14:43;102298.94;;;20.62;25.51
41596;BME280;27283;52.504;13.358;2023-05-08T11:17:25;102299.50;;;20.35;26.20
41596;BME280;27283;52.504;13.358;2023-05-08T11:19:59;102293.56;;;20.32;26.33
41596;BME280;27283;52.504;13.358;2023-05-08T11:22:33;102302.25;;;19.84;26.67
41596;BME280;27283;52.504;13.358;2023-05-08T11:25:08;102291.22;;;20.29;26.84
41596;BME280;27283;52.504;13.358;2023-05-08T11:28:10;102298.81;;;20.12;25.95
41596;BME280;27283;52.504;13.358;2023-05-08T11:30:43;102300.03;;;20.09;26.79
41596;BME280;27283;52.504;13.358;2023-05-08T11:33:16;102284.84;;;19.70;27.58
41596;BME280;27283;52.504;13.358;2023-05-08T11:35:51;102286.13;;;19.59;27.72
41596;BME280;27283;52.504;13.358;2023-05-08T11:38:30;102288.13;;;19.80;27.06
41596;BME280;27283;52.504;13.358;2023-05-08T11:41:05;102283.16;;;19.84;27.08
41596;BME280;27283;52.504;13.358;2023-05-08T11:44:10;102278.06;;;19.96;26.37
41596;BME280;27283;52.504;13.358;2023-05-08T11:46:50;102278.25;;;19.64;26.57
41596;BME280;27283;52.504;13.358;2023-05-08T11:49:25;102282.53;;;19.29;26.74
41596;BME280;27283;52.504;13.358;2023-05-08T11:51:58;102269.13;;;18.89;27.49
41596;BME280;27283;52.504;13.358;2023-05-08T11:54:35;102262.22;;;18.78;27.67
41596;BME280;27283;52.504;13.358;2023-05-08T11:57:08;102293.78;;;18.73;27.80
41596;BME280;27283;52.504;13.358;2023-05-08T11:59:43;102260.28;;;18.18;28.58
41596;BME280;27283;52.504;13.358;2023-05-08T12:02:34;102260.97;;;18.43;28.25
41596;BME280;27283;52.504;13.358;2023-05-08T12:05:08;102265.50;;;18.51;27.78
41596;BME280;27283;52.504;13.358;2023-05-08T12:07:43;102258.97;;;18.60;28.01
41596;BME280;27283;52.504;13.358;2023-05-08T12:10:16;102269.69;;;18.07;28.74
41596;BME280;27283;52.504;13.358;2023-05-08T12:12:49;102262.31;;;18.16;28.00
41596;BME280;27283;52.504;13.358;2023-05-08T12:15:25;102273.66;;;18.28;28.00
41596;BME280;27283;52.504;13.358;2023-05-08T12:18:00;102260.03;;;18.04;28.19
41596;BME280;27283;52.504;13.358;2023-05-08T12:20:33;102270.63;;;17.83;28.76
41596;BME280;27283;52.504;13.358;2023-05-08T12:23:08;102258.50;;;18.02;28.55
41596;BME280;27283;52.504;13.358;2023-05-08T12:25:41;102253.47;;;17.91;29.31
41596;BME280;27283;52.504;13.358;2023-05-08T12:28:14;102269.31;;;17.79;29.30
41596;BME280;27283;52.504;13.358;2023-05-08T12:30:50;102262.41;;;17.60;29.44
41596;BME280;27283;52.504;13.358;2023-05-08T12:33:22;102253.88;;;17.71;29.15
41596;BME280;27283;52.504;13.358;2023-05-08T12:36:00;102254.19;;;17.76;29.01
41596;BME280;27283;52.504;13.358;2023-05-08T12:38:34;102249.34;;;17.55;29.27
41596;BME280;27283;52.504;13.358;2023-05-08T12:41:07;102244.91;;;17.62;29.51
41596;BME280;27283;52.504;13.358;2023-05-08T12:43:39;102255.38;;;17.74;28.86
41596;BME280;27283;52.504;13.358;2023-05-08T12:46:17;102244.59;;;17.49;29.43
41596;BME280;27283;52.504;13.358;2023-05-08T12:49:00;102238.41;;;17.63;29.57
41596;BME280;27283;52.504;13.358;2023-05-08T12:51:36;102236.72;;;17.62;29.97
41596;BME280;27283;52.504;13.358;2023-05-08T12:54:09;102236.19;;;17.67;30.21
41596;BME280;27283;52.504;13.358;2023-05-08T12:56:42;102234.78;;;17.79;29.14
41596;BME280;27283;52.504;13.358;2023-05-08T12:59:15;102233.59;;;17.74;29.23
41596;BME280;27283;52.504;13.358;2023-05-08T13:01:52;102232.97;;;17.63;28.89
41596;BME280;27283;52.504;13.358;2023-05-08T13:04:25;102229.06;;;17.66;29.29
41596;BME280;27283;52.504;13.358;2023-05-08T13:06:59;102226.34;;;17.66;29.49
41596;BME280;27283;52.504;13.358;2023-05-08T13:09:32;102232.03;;;17.87;29.31
41596;BME280;27283;52.504;13.358;2023-05-08T13:12:06;102212.13;;;17.87;29.90
41596;BME280;27283;52.504;13.358;2023-05-08T13:14:39;102219.19;;;18.04;29.53
41596;BME280;27283;52.504;13.358;2023-05-08T13:17:19;102222.91;;;17.72;28.18
41596;BME280;27283;52.504;13.358;2023-05-08T13:19:52;102215.81;;;17.63;28.64
41596;BME280;27283;52.504;13.358;2023-05-08T13:22:25;102210.88;;;17.66;29.06
41596;BME280;27283;52.504;13.358;2023-05-08T13:24:57;102201.50;;;17.69;29.27
41596;BME280;27283;52.504;13.358;2023-05-08T13:27:33;102206.47;;;17.65;29.36
41596;BME280;27283;52.504;13.358;2023-05-08T13:30:18;102188.16;;;17.51;28.98
41596;BME280;27283;52.504;13.358;2023-05-08T13:32:55;102198.31;;;17.57;29.09
41596;BME280;27283;52.504;13.358;2023-05-08T13:35:31;102206.47;;;17.65;28.28
41596;BME280;27283;52.504;13.358;2023-05-08T13:38:05;102207.16;;;17.59;28.11
41596;BME280;27283;52.504;13.358;2023-05-08T13:40:38;102190.78;;;17.76;28.31